This is the latest recevied weather packets stored in our database for station/object OK4ZAW-16. If no packets are shown the sender has not sent any weather packets the latest 10 day(s).
| Time | Temp. | Humidity | Pressure | Rain* | Wind** | Luminosity | Snow |
|---|---|---|---|---|---|---|---|
| 1777751988 | 10.56° C | 64% | 1022.8 hPa | - | - | 150 W/m² | - |
| 1777751571 | 11.11° C | 60% | 1022.9 hPa | - | - | 150 W/m² | - |
| 1777751155 | 11.11° C | 59% | 1022.9 hPa | - | - | 150 W/m² | - |
| 1777750738 | 11.11° C | 58% | 1022.9 hPa | - | - | 150 W/m² | - |
| 1777750322 | 11.11° C | 57% | 1023.1 hPa | - | - | 150 W/m² | - |
| 1777749905 | 11.11° C | 57% | 1023.1 hPa | - | - | 150 W/m² | - |
| 1777749488 | 11.67° C | 57% | 1023.1 hPa | - | - | 150 W/m² | - |
| 1777749072 | 11.67° C | 57% | 1023 hPa | - | - | 150 W/m² | - |
| 1777748655 | 11.67° C | 57% | 1023 hPa | - | - | 150 W/m² | - |
| 1777748239 | 11.67° C | 59% | 1023 hPa | - | - | 150 W/m² | - |
| 1777747822 | 11.67° C | 61% | 1023 hPa | - | - | 150 W/m² | - |
| 1777747405 | 11.11° C | 63% | 1023 hPa | - | - | 150 W/m² | - |
| 1777746989 | 11.67° C | 64% | 1023 hPa | - | - | 150 W/m² | - |
| 1777746572 | 11.11° C | 66% | 1023 hPa | - | - | 150 W/m² | - |
| 1777746156 | 11.11° C | 67% | 1023 hPa | - | - | 150 W/m² | - |
| 1777745739 | 11.11° C | 61% | 1022.9 hPa | - | - | 150 W/m² | - |
| 1777745322 | 11.67° C | 59% | 1022.9 hPa | - | - | 150 W/m² | - |
| 1777744906 | 12.22° C | 55% | 1022.8 hPa | - | - | 150 W/m² | - |
| 1777744489 | 12.78° C | 52% | 1022.8 hPa | - | - | 150 W/m² | - |
| 1777744072 | 13.33° C | 49% | 1022.9 hPa | - | - | 150 W/m² | - |
| 1777743238 | 14.44° C | 45% | 1022.9 hPa | - | - | 150 W/m² | - |
| 1777742821 | 15.56° C | 44% | 1023 hPa | - | - | 150 W/m² | - |
| 1777741986 | 16.11° C | 43% | 1023 hPa | - | - | 150 W/m² | - |
| 1777741569 | 16.67° C | 42% | 1023 hPa | - | - | 150 W/m² | - |
| 1777741152 | 16.67° C | 41% | 1023.2 hPa | - | - | 150 W/m² | - |
* Rain since midnight (hover to see other rain measurements)
** Current wind speed in m/s (hover to see current wind gust speed)